createdAt,value
2023-04-17T00:02:29.845Z,2.60
2023-04-17T00:04:57.228Z,2.67
2023-04-17T00:07:24.276Z,2.70
2023-04-17T00:09:51.347Z,2.70
2023-04-17T00:12:18.389Z,2.67
2023-04-17T00:14:45.507Z,2.70
2023-04-17T00:17:12.960Z,2.60
2023-04-17T00:19:40.490Z,2.70
2023-04-17T00:22:07.503Z,2.63
2023-04-17T00:24:34.904Z,2.57
2023-04-17T00:27:03.035Z,2.67
2023-04-17T00:29:30.134Z,2.77
2023-04-17T00:31:57.716Z,2.70
2023-04-17T00:34:25.125Z,2.77
2023-04-17T00:36:52.081Z,2.70
2023-04-17T00:39:19.253Z,2.70
2023-04-17T00:41:46.249Z,2.80
2023-04-17T00:44:13.796Z,2.70
2023-04-17T00:46:41.523Z,2.70
2023-04-17T00:49:10.012Z,2.63
2023-04-17T00:51:38.112Z,2.63
2023-04-17T00:54:05.752Z,2.73
2023-04-17T00:56:33.449Z,2.70
2023-04-17T00:59:04.014Z,2.60
2023-04-17T01:01:31.078Z,2.57
2023-04-17T01:04:01.772Z,2.60
2023-04-17T01:06:29.057Z,2.60
2023-04-17T01:08:56.891Z,2.70
2023-04-17T01:11:24.099Z,2.60
2023-04-17T01:13:51.677Z,2.67
2023-04-17T01:16:19.720Z,2.60
2023-04-17T01:18:48.203Z,2.60
2023-04-17T01:21:16.636Z,2.63
2023-04-17T01:23:46.929Z,2.60
2023-04-17T01:26:22.738Z,2.67
2023-04-17T01:28:56.121Z,2.63
2023-04-17T01:31:25.764Z,2.70
2023-04-17T01:33:53.204Z,2.67
2023-04-17T01:36:20.395Z,2.60
2023-04-17T01:38:47.513Z,2.60
2023-04-17T01:41:15.318Z,2.67
2023-04-17T01:43:46.215Z,2.63
2023-04-17T01:46:14.148Z,2.63
2023-04-17T01:48:41.459Z,2.70
2023-04-17T01:51:09.074Z,2.67
2023-04-17T01:53:38.861Z,2.70
2023-04-17T01:56:06.335Z,2.60
2023-04-17T01:58:33.511Z,2.70
2023-04-17T02:01:00.737Z,2.70
2023-04-17T02:03:28.276Z,2.70
2023-04-17T02:05:55.578Z,2.60
2023-04-17T02:08:23.448Z,2.70
2023-04-17T02:10:51.896Z,2.70
2023-04-17T02:13:18.962Z,2.70
2023-04-17T02:15:46.039Z,2.60
2023-04-17T02:18:14.033Z,2.70
2023-04-17T02:20:41.484Z,2.70
2023-04-17T02:23:08.996Z,2.70
2023-04-17T02:25:36.741Z,2.70
2023-04-17T02:28:04.863Z,2.70
2023-04-17T02:30:34.811Z,2.70
2023-04-17T02:33:02.558Z,2.63
2023-04-17T02:35:31.893Z,2.60
2023-04-17T02:37:59.696Z,2.70
2023-04-17T02:40:27.819Z,2.60
2023-04-17T02:43:01.169Z,2.70
2023-04-17T02:45:29.546Z,2.70
2023-04-17T02:47:57.088Z,2.67
2023-04-17T02:50:25.107Z,2.63
2023-04-17T02:53:03.052Z,2.73
2023-04-17T02:55:31.305Z,2.67
2023-04-17T02:57:58.867Z,2.70
2023-04-17T03:00:27.147Z,2.70
2023-04-17T03:02:55.460Z,2.70
2023-04-17T03:05:23.419Z,2.70
2023-04-17T03:07:52.076Z,2.70
2023-04-17T03:10:19.535Z,2.73
2023-04-17T03:12:46.499Z,2.70
2023-04-17T03:15:13.808Z,2.77
2023-04-17T03:17:41.325Z,2.70
2023-04-17T03:20:09.369Z,2.80
2023-04-17T03:22:36.720Z,2.77
2023-04-17T03:25:06.327Z,2.80
2023-04-17T03:27:44.582Z,2.77
2023-04-17T03:30:13.398Z,2.80
2023-04-17T03:32:44.286Z,2.87
2023-04-17T03:35:11.761Z,2.77
2023-04-17T03:37:38.722Z,2.80
2023-04-17T03:40:07.291Z,2.83
2023-04-17T03:42:34.751Z,2.80
2023-04-17T03:45:03.237Z,2.80
2023-04-17T03:47:30.525Z,2.73
2023-04-17T03:49:58.153Z,2.80
2023-04-17T03:52:26.925Z,2.73
2023-04-17T03:54:58.055Z,2.73
2023-04-17T03:57:26.300Z,2.63
2023-04-17T03:59:53.977Z,2.77
2023-04-17T04:02:22.906Z,2.70
2023-04-17T04:04:51.220Z,2.70
2023-04-17T04:07:20.444Z,2.70
2023-04-17T04:09:49.426Z,2.73
2023-04-17T04:12:17.529Z,2.67
2023-04-17T04:14:45.997Z,2.70
2023-04-17T04:17:15.234Z,2.70
2023-04-17T04:19:43.473Z,2.73
2023-04-17T04:22:13.488Z,2.70
2023-04-17T04:24:47.298Z,2.80
2023-04-17T04:27:18.563Z,2.70
2023-04-17T04:29:48.703Z,2.70
2023-04-17T04:32:18.060Z,2.70
2023-04-17T04:34:47.038Z,2.70
2023-04-17T04:37:15.294Z,2.70
2023-04-17T04:39:44.506Z,2.70
2023-04-17T04:42:21.722Z,2.70
2023-04-17T04:45:16.244Z,2.70
2023-04-17T04:47:44.619Z,2.67
2023-04-17T04:50:12.708Z,2.70
2023-04-17T04:52:40.330Z,2.70
2023-04-17T04:55:17.387Z,2.60
2023-04-17T04:57:52.796Z,2.70
2023-04-17T05:00:21.211Z,2.63
2023-04-17T05:02:52.334Z,2.67
2023-04-17T05:05:25.264Z,2.60
2023-04-17T05:07:54.919Z,2.67
2023-04-17T05:10:25.584Z,2.63
2023-04-17T05:12:58.284Z,2.60
2023-04-17T05:15:25.863Z,2.60
2023-04-17T05:17:53.836Z,2.60
2023-04-17T05:20:21.316Z,2.60
2023-04-17T05:22:53.840Z,2.60
2023-04-17T05:25:22.744Z,2.70
2023-04-17T05:27:50.757Z,2.53
2023-04-17T05:30:18.922Z,2.50
2023-04-17T05:32:52.845Z,2.60
2023-04-17T05:35:28.953Z,2.60
2023-04-17T05:37:56.080Z,2.60
2023-04-17T05:40:24.096Z,2.67
2023-04-17T05:42:51.857Z,2.53
2023-04-17T05:45:19.668Z,2.60
2023-04-17T05:47:46.864Z,2.50
2023-04-17T05:50:15.439Z,2.57
2023-04-17T05:52:42.818Z,2.60
2023-04-17T05:55:12.289Z,2.50
2023-04-17T05:57:40.608Z,2.60
2023-04-17T06:00:11.844Z,2.50
2023-04-17T06:02:43.128Z,2.60
2023-04-17T06:05:17.511Z,2.47
2023-04-17T06:07:45.853Z,2.57
2023-04-17T06:10:13.007Z,2.50
2023-04-17T06:12:40.562Z,2.57
2023-04-17T06:15:11.901Z,2.43
2023-04-17T06:17:40.757Z,2.40
2023-04-17T06:20:11.149Z,2.50
2023-04-17T06:22:40.470Z,2.40
2023-04-17T06:25:08.273Z,2.50
2023-04-17T06:27:37.270Z,2.50
2023-04-17T06:30:06.548Z,2.50
2023-04-17T06:32:43.644Z,2.33
2023-04-17T06:35:11.519Z,2.40
2023-04-17T06:37:44.526Z,2.37
2023-04-17T06:40:12.503Z,2.37
2023-04-17T06:42:40.692Z,2.47
2023-04-17T06:45:12.534Z,2.40
2023-04-17T06:47:42.363Z,2.40
2023-04-17T06:50:10.360Z,2.40
2023-04-17T06:52:38.006Z,2.40
2023-04-17T06:55:05.750Z,2.30
2023-04-17T06:57:33.921Z,2.40
2023-04-17T07:00:01.214Z,2.47
2023-04-17T07:02:28.331Z,2.33
2023-04-17T07:04:55.933Z,2.40
2023-04-17T07:07:23.524Z,2.47
2023-04-17T07:09:51.278Z,2.40
2023-04-17T07:12:18.838Z,2.43
2023-04-17T07:14:46.300Z,2.40
2023-04-17T07:17:13.854Z,2.30
2023-04-17T07:19:40.937Z,2.40
2023-04-17T07:22:09.965Z,2.40
2023-04-17T07:24:36.942Z,2.30
2023-04-17T07:27:05.042Z,2.40
2023-04-17T07:29:32.078Z,2.33
2023-04-17T07:31:59.810Z,2.40
2023-04-17T07:34:30.946Z,2.40
2023-04-17T07:36:58.417Z,2.33
2023-04-17T07:39:30.332Z,2.40
2023-04-17T07:41:57.955Z,2.40
2023-04-17T07:44:25.446Z,2.27
2023-04-17T07:46:52.955Z,2.30
2023-04-17T07:49:21.408Z,2.30
2023-04-17T07:51:49.400Z,2.30
2023-04-17T07:54:16.868Z,2.27
2023-04-17T07:56:46.454Z,2.20
2023-04-17T07:59:14.150Z,2.30
2023-04-17T08:03:33.906Z,2.23
2023-04-17T08:06:01.693Z,2.40
2023-04-17T08:08:29.139Z,2.37
2023-04-17T08:10:56.581Z,2.17
2023-04-17T08:13:24.069Z,2.17
2023-04-17T08:15:52.060Z,2.20
2023-04-17T08:18:19.031Z,2.27
2023-04-17T08:20:46.578Z,2.30
2023-04-17T08:23:13.584Z,2.10
2023-04-17T08:25:41.040Z,2.27
2023-04-17T08:28:08.466Z,2.20
2023-04-17T08:30:35.472Z,2.27
2023-04-17T08:33:03.121Z,2.30
2023-04-17T08:35:30.780Z,2.20
2023-04-17T08:37:59.811Z,2.30
2023-04-17T08:40:26.993Z,2.20
2023-04-17T08:42:54.891Z,2.27
2023-04-17T08:45:24.559Z,2.20
2023-04-17T08:47:51.731Z,2.40
2023-04-17T08:50:21.850Z,2.30
2023-04-17T08:52:52.459Z,2.37
2023-04-17T08:55:25.245Z,2.30
2023-04-17T08:58:01.440Z,2.37
2023-04-17T09:00:35.034Z,2.37
2023-04-17T09:03:07.901Z,2.30
2023-04-17T09:05:37.097Z,2.50
2023-04-17T09:08:25.981Z,2.40
2023-04-17T09:10:55.743Z,2.43
2023-04-17T09:13:25.550Z,2.53
2023-04-17T09:16:13.001Z,2.50
2023-04-17T09:18:46.181Z,2.60
2023-04-17T09:21:20.989Z,2.60
2023-04-17T09:23:58.805Z,2.70
2023-04-17T09:26:31.285Z,2.53
2023-04-17T09:29:05.071Z,2.70
2023-04-17T09:31:37.467Z,2.50
2023-04-17T09:34:08.924Z,2.70
2023-04-17T09:36:38.386Z,2.60
2023-04-17T09:39:24.308Z,2.70
2023-04-17T09:42:03.709Z,2.50
2023-04-17T09:44:31.583Z,2.57
2023-04-17T09:47:01.051Z,2.40
2023-04-17T09:49:52.157Z,2.30
2023-04-17T09:52:23.395Z,2.53
2023-04-17T09:54:53.546Z,2.40
2023-04-17T09:57:21.271Z,2.53
2023-04-17T09:59:48.819Z,2.80
2023-04-17T10:02:20.286Z,2.50
2023-04-17T10:04:47.895Z,2.60
2023-04-17T10:07:16.336Z,2.60
2023-04-17T10:09:46.865Z,2.50
2023-04-17T10:12:20.498Z,2.70
2023-04-17T10:14:51.534Z,2.80
2023-04-17T10:17:31.649Z,2.60
2023-04-17T10:20:20.283Z,2.50
2023-04-17T10:22:56.033Z,2.43
2023-04-17T10:25:30.867Z,2.50
2023-04-17T10:28:02.423Z,2.70
2023-04-17T10:30:54.104Z,2.43
2023-04-17T10:33:27.099Z,2.20
2023-04-17T10:35:55.385Z,2.00
2023-04-17T10:38:36.493Z,2.10
2023-04-17T10:41:09.382Z,1.97
2023-04-17T10:43:42.409Z,2.10
2023-04-17T10:46:14.942Z,1.90
2023-04-17T10:48:52.825Z,1.70
2023-04-17T10:51:29.317Z,1.80
2023-04-17T10:53:58.480Z,1.60
2023-04-17T10:56:48.461Z,2.83
2023-04-17T10:59:18.987Z,2.43
2023-04-17T11:01:48.975Z,2.27
2023-04-17T11:04:31.828Z,1.90
2023-04-17T11:07:00.088Z,1.97
2023-04-17T11:09:29.485Z,1.90
2023-04-17T11:12:03.494Z,1.90
2023-04-17T11:14:31.356Z,1.83
2023-04-17T11:16:58.930Z,1.90
2023-04-17T11:19:26.496Z,1.67
2023-04-17T11:22:01.236Z,1.57
2023-04-17T11:24:31.504Z,1.70
2023-04-17T11:27:01.757Z,1.87
2023-04-17T11:29:29.504Z,1.90
2023-04-17T11:31:58.163Z,1.67
2023-04-17T11:34:28.483Z,1.33
2023-04-17T11:36:59.620Z,1.40
2023-04-17T11:39:31.678Z,1.47
2023-04-17T11:41:59.653Z,1.47
2023-04-17T11:44:29.367Z,1.47
2023-04-17T11:47:00.980Z,1.47
2023-04-17T11:49:38.323Z,1.50
2023-04-17T11:52:06.076Z,1.57
2023-04-17T11:54:38.441Z,1.60
2023-04-17T11:57:15.138Z,1.80
2023-04-17T11:59:45.327Z,1.70
2023-04-17T12:02:12.490Z,1.67
2023-04-17T12:04:40.745Z,1.70
2023-04-17T12:07:22.830Z,1.70
2023-04-17T12:09:57.674Z,1.80
2023-04-17T12:12:24.932Z,1.87
2023-04-17T12:14:52.137Z,2.00
2023-04-17T12:17:19.633Z,2.10
2023-04-17T12:19:51.753Z,2.00
2023-04-17T12:22:19.637Z,2.03
2023-04-17T12:24:47.603Z,2.10
2023-04-17T12:27:14.906Z,2.00
2023-04-17T12:29:44.559Z,3.70
2023-04-17T12:32:12.578Z,2.10
2023-04-17T12:34:40.340Z,2.23
2023-04-17T12:37:08.978Z,1.57
2023-04-17T12:39:36.014Z,1.67
2023-04-17T12:42:03.501Z,1.70
2023-04-17T12:44:30.914Z,1.80
2023-04-17T12:46:58.006Z,1.93
2023-04-17T12:49:25.266Z,1.70
2023-04-17T12:51:52.484Z,1.90
2023-04-17T12:54:19.998Z,1.80
2023-04-17T12:56:47.095Z,1.80
2023-04-17T12:59:14.202Z,1.80
2023-04-17T13:01:42.436Z,2.00
2023-04-17T13:04:09.629Z,2.07
2023-04-17T13:06:36.855Z,1.97
2023-04-17T13:09:04.740Z,2.00
2023-04-17T13:11:32.220Z,2.10
2023-04-17T13:13:59.190Z,2.30
2023-04-17T13:16:27.366Z,2.30
2023-04-17T13:18:54.452Z,2.30
2023-04-17T13:21:21.498Z,2.20
2023-04-17T13:23:49.036Z,2.20
2023-04-17T13:26:16.069Z,2.20
2023-04-17T13:28:43.037Z,2.30
2023-04-17T13:31:10.155Z,2.30
2023-04-17T13:33:40.070Z,2.30
2023-04-17T13:36:08.020Z,2.27
2023-04-17T13:38:35.452Z,2.20
2023-04-17T13:41:02.438Z,2.20
2023-04-17T13:43:29.396Z,2.17
2023-04-17T13:45:56.848Z,2.50
2023-04-17T13:48:24.198Z,2.20
2023-04-17T13:50:51.928Z,2.40
2023-04-17T13:53:20.227Z,2.30
2023-04-17T13:55:48.336Z,2.43
2023-04-17T13:58:15.818Z,2.17
2023-04-17T14:00:43.143Z,2.50
2023-04-17T14:03:10.551Z,2.23
2023-04-17T14:05:38.106Z,2.30
2023-04-17T14:08:05.209Z,2.30
2023-04-17T14:10:32.273Z,2.10
2023-04-17T14:12:59.701Z,2.20
2023-04-17T14:15:28.838Z,2.20
2023-04-17T14:17:57.236Z,2.20
2023-04-17T14:20:24.838Z,2.30
2023-04-17T14:22:54.228Z,2.33
2023-04-17T14:25:21.790Z,2.30
2023-04-17T14:27:48.893Z,2.30
2023-04-17T14:30:16.395Z,2.20
2023-04-17T14:32:43.878Z,2.40
2023-04-17T14:35:10.976Z,2.30
2023-04-17T14:37:38.904Z,2.27
2023-04-17T14:40:07.819Z,2.33
2023-04-17T14:42:47.097Z,2.30
2023-04-17T14:45:20.452Z,2.40
2023-04-17T14:47:48.689Z,2.47
2023-04-17T14:50:15.770Z,2.40
2023-04-17T14:52:42.792Z,2.40
2023-04-17T14:55:11.224Z,2.37
2023-04-17T14:57:39.145Z,2.43
2023-04-17T15:00:08.518Z,2.40
2023-04-17T15:02:38.623Z,2.47
2023-04-17T15:05:07.572Z,2.40
2023-04-17T15:07:35.689Z,2.40
2023-04-17T15:10:02.727Z,2.40
2023-04-17T15:12:30.144Z,2.50
2023-04-17T15:14:57.670Z,2.40
2023-04-17T15:17:24.685Z,2.40
2023-04-17T15:19:52.789Z,2.43
2023-04-17T15:22:20.184Z,2.50
2023-04-17T15:24:47.428Z,2.43
2023-04-17T15:27:14.685Z,2.40
2023-04-17T15:29:41.898Z,2.40
2023-04-17T15:32:09.009Z,2.60
2023-04-17T15:34:36.689Z,2.50
2023-04-17T15:37:07.014Z,2.60
2023-04-17T15:39:39.108Z,2.50
2023-04-17T15:42:11.005Z,2.60
2023-04-17T15:44:38.188Z,2.47
2023-04-17T15:47:06.412Z,2.50
2023-04-17T15:49:33.527Z,2.53
2023-04-17T15:52:03.217Z,2.50
2023-04-17T15:54:31.755Z,2.57
2023-04-17T15:56:59.374Z,2.50
2023-04-17T15:59:26.491Z,2.43
2023-04-17T16:01:54.042Z,2.60
2023-04-17T16:04:21.287Z,2.60
2023-04-17T16:06:48.604Z,2.60
2023-04-17T16:09:19.738Z,2.57
2023-04-17T16:11:48.446Z,2.50
2023-04-17T16:14:15.575Z,2.50
2023-04-17T16:16:42.842Z,2.43
2023-04-17T16:19:10.369Z,2.47
2023-04-17T16:21:38.309Z,2.50
2023-04-17T16:24:05.520Z,2.40
2023-04-17T16:26:32.633Z,2.40
2023-04-17T16:29:00.688Z,2.40
2023-04-17T16:31:28.249Z,2.40
2023-04-17T16:33:55.860Z,2.40
2023-04-17T16:36:22.912Z,2.43
2023-04-17T16:38:50.418Z,2.50
2023-04-17T16:41:18.490Z,2.50
2023-04-17T16:43:46.703Z,2.50
2023-04-17T16:46:23.962Z,2.43
2023-04-17T16:48:55.816Z,2.40
2023-04-17T16:51:23.631Z,2.47
2023-04-17T16:53:51.475Z,2.50
2023-04-17T16:56:18.982Z,2.50
2023-04-17T16:58:45.958Z,2.40
2023-04-17T17:01:12.994Z,2.43
2023-04-17T17:03:43.003Z,2.50
2023-04-17T17:06:10.584Z,2.43
2023-04-17T17:08:38.992Z,2.47
2023-04-17T17:11:06.190Z,2.50
2023-04-17T17:13:33.173Z,2.40
2023-04-17T17:16:00.392Z,2.40
2023-04-17T17:18:27.855Z,2.40
2023-04-17T17:20:56.223Z,2.50
2023-04-17T17:23:23.756Z,2.50
2023-04-17T17:25:50.841Z,2.50
2023-04-17T17:28:18.040Z,2.53
2023-04-17T17:30:46.368Z,2.40
2023-04-17T17:33:13.880Z,2.40
2023-04-17T17:35:40.877Z,2.50
2023-04-17T17:38:07.865Z,2.50
2023-04-17T17:40:36.597Z,2.50
2023-04-17T17:43:04.108Z,2.50
2023-04-17T17:45:31.447Z,2.50
2023-04-17T17:47:59.000Z,2.50
2023-04-17T17:50:26.647Z,2.50
2023-04-17T17:52:53.697Z,2.50
2023-04-17T17:55:20.859Z,2.43
2023-04-17T17:57:49.669Z,2.50
2023-04-17T18:00:18.225Z,2.50
2023-04-17T18:02:45.484Z,2.63
2023-04-17T18:05:12.836Z,2.60
2023-04-17T18:07:40.820Z,2.57
2023-04-17T18:10:08.953Z,2.60
2023-04-17T18:12:35.995Z,2.70
2023-04-17T18:15:03.283Z,2.70
2023-04-17T18:17:30.370Z,2.60
2023-04-17T18:19:57.648Z,2.60
2023-04-17T18:22:24.712Z,2.70
2023-04-17T18:24:55.803Z,2.70
2023-04-17T18:27:23.487Z,2.57
2023-04-17T18:29:51.515Z,2.83
2023-04-17T18:32:18.802Z,2.77
2023-04-17T18:34:49.032Z,2.80
2023-04-17T18:37:18.100Z,2.73
2023-04-17T18:39:45.901Z,2.90
2023-04-17T18:42:12.898Z,2.67
2023-04-17T18:44:39.999Z,2.80
2023-04-17T18:47:07.050Z,2.80
2023-04-17T18:49:34.324Z,2.87
2023-04-17T18:52:03.222Z,2.80
2023-04-17T18:54:30.398Z,2.70
2023-04-17T18:56:57.958Z,2.67
2023-04-17T18:59:26.230Z,2.77
2023-04-17T19:01:53.284Z,2.80
2023-04-17T19:04:21.603Z,2.80
2023-04-17T19:06:48.696Z,2.80
2023-04-17T19:09:15.683Z,2.73
2023-04-17T19:11:43.050Z,2.87
2023-04-17T19:14:10.131Z,2.70
2023-04-17T19:16:37.615Z,2.70
2023-04-17T19:19:05.574Z,2.70
2023-04-17T19:21:33.062Z,2.73
2023-04-17T19:24:00.174Z,2.80
2023-04-17T19:26:27.332Z,2.80
2023-04-17T19:28:55.939Z,2.87
2023-04-17T19:31:23.105Z,2.80
2023-04-17T19:33:52.924Z,2.70
2023-04-17T19:36:20.436Z,2.70
2023-04-17T19:38:47.524Z,2.73
2023-04-17T19:41:18.461Z,2.80
2023-04-17T19:43:51.259Z,2.70
2023-04-17T19:46:21.114Z,2.70
2023-04-17T19:48:49.366Z,2.80
2023-04-17T19:51:17.234Z,2.70
2023-04-17T19:53:47.968Z,2.67
2023-04-17T19:56:15.494Z,2.80
2023-04-17T19:58:42.892Z,3.00
2023-04-17T20:01:10.067Z,2.80
2023-04-17T20:03:39.225Z,2.70
2023-04-17T20:06:07.423Z,2.70
2023-04-17T20:08:34.702Z,2.70
2023-04-17T20:11:02.176Z,2.80
2023-04-17T20:13:30.296Z,2.70
2023-04-17T20:15:57.427Z,2.70
2023-04-17T20:18:24.956Z,2.73
2023-04-17T20:20:54.085Z,2.70
2023-04-17T20:23:24.447Z,2.77
2023-04-17T20:25:51.632Z,2.80
2023-04-17T20:28:19.778Z,2.67
2023-04-17T20:30:47.309Z,2.70
2023-04-17T20:33:14.527Z,2.70
2023-04-17T20:35:42.199Z,2.63
2023-04-17T20:38:09.194Z,2.70
2023-04-17T20:40:36.693Z,2.63
2023-04-17T20:43:04.122Z,2.70
2023-04-17T20:45:31.591Z,2.70
2023-04-17T20:47:58.652Z,2.70
2023-04-17T20:50:25.865Z,2.73
2023-04-17T20:52:53.292Z,2.70
2023-04-17T20:55:20.834Z,2.77
2023-04-17T20:57:48.406Z,2.80
2023-04-17T21:00:16.317Z,2.80
2023-04-17T21:02:43.995Z,2.67
2023-04-17T21:05:11.166Z,2.70
2023-04-17T21:07:38.224Z,2.73
2023-04-17T21:10:06.315Z,2.70
2023-04-17T21:12:34.994Z,2.80
2023-04-17T21:15:02.325Z,2.77
2023-04-17T21:17:29.792Z,2.70
2023-04-17T21:19:57.306Z,2.70
2023-04-17T21:22:24.416Z,2.70
2023-04-17T21:24:51.501Z,2.70
2023-04-17T21:27:18.543Z,2.70
2023-04-17T21:29:45.547Z,2.70
2023-04-17T21:32:12.578Z,2.80
2023-04-17T21:34:39.728Z,2.70
2023-04-17T21:37:07.188Z,2.70
2023-04-17T21:39:34.204Z,2.70
2023-04-17T21:42:01.896Z,2.73
2023-04-17T21:44:29.013Z,2.67
2023-04-17T21:46:56.033Z,2.70
2023-04-17T21:49:23.480Z,2.63
2023-04-17T21:51:50.577Z,2.70
2023-04-17T21:54:17.604Z,2.70
2023-04-17T21:56:44.629Z,2.70
2023-04-17T21:59:11.575Z,2.60
2023-04-17T22:01:38.703Z,2.70
2023-04-17T22:04:05.776Z,2.60
2023-04-17T22:06:36.747Z,2.60
2023-04-17T22:09:04.902Z,2.70
2023-04-17T22:11:32.140Z,2.67
2023-04-17T22:13:59.651Z,2.63
2023-04-17T22:16:26.781Z,2.70
2023-04-17T22:18:54.247Z,2.67
2023-04-17T22:21:21.278Z,2.67
2023-04-17T22:23:48.288Z,2.63
2023-04-17T22:26:15.490Z,2.60
2023-04-17T22:28:42.633Z,2.63
2023-04-17T22:31:10.004Z,2.60
2023-04-17T22:33:37.758Z,2.60
2023-04-17T22:36:04.914Z,2.70
2023-04-17T22:38:32.491Z,2.60
2023-04-17T22:40:59.685Z,2.67
2023-04-17T22:43:27.171Z,2.60
2023-04-17T22:45:54.676Z,2.60
2023-04-17T22:48:24.523Z,2.60
2023-04-17T22:50:52.264Z,2.60
2023-04-17T22:53:19.324Z,2.70
2023-04-17T22:55:46.810Z,2.60
2023-04-17T22:58:15.032Z,2.70
2023-04-17T23:00:42.138Z,2.60
2023-04-17T23:03:09.802Z,2.70
2023-04-17T23:05:37.375Z,2.60
2023-04-17T23:08:04.355Z,2.63
2023-04-17T23:10:31.752Z,2.70
2023-04-17T23:12:58.827Z,2.70
2023-04-17T23:15:26.341Z,2.70
2023-04-17T23:17:53.772Z,2.77
2023-04-17T23:20:20.888Z,2.70
2023-04-17T23:22:48.097Z,2.80
2023-04-17T23:25:15.149Z,2.67
2023-04-17T23:27:42.225Z,2.70
2023-04-17T23:30:09.816Z,2.73
2023-04-17T23:32:36.876Z,2.80
2023-04-17T23:35:04.576Z,2.70
2023-04-17T23:37:32.054Z,2.70
2023-04-17T23:40:01.192Z,2.70
2023-04-17T23:42:28.359Z,2.70
2023-04-17T23:44:55.493Z,2.67
2023-04-17T23:47:22.960Z,2.70
2023-04-17T23:49:50.382Z,2.70
2023-04-17T23:52:19.247Z,2.70
2023-04-17T23:54:47.344Z,2.73
2023-04-17T23:57:14.793Z,2.70
2023-04-17T23:59:41.769Z,2.70
